^^
Datos históricos de la estación: Murcia-Puente Tocinos
Diario Informe para Julio 23, 2019 Unidades:  Métrico    Ingés   Ambas
Diario Semanal Mensual Anual
  Máxima: Mínima: Promedio:
Temperatura: 29.2 °C 20.9 °C 24.7 °C
Punto de rocio: 18.1 °C 11.8 °C 13.9 °C
Humedad: 77.1% 38% 52%
Velocidad viento: 13.7km/h 0km/h 7.5km/h
Racha viento: 24.1km/h - -
Viento- - SSO
Presión: 1019.0 hPa 1014.1 hPa -
Precipitación: 0.0 mm    
 
 
Tabla de datos para Julio 23, 2019
Hora Temperatura Punto de rocio Presión Viento Velocidad viento Racha viento Humedad Intensidad lluvia(por hora) Nubes
00:04 26.1 °C 14.6 °C 1014.1 hPa NNO 5.8 km/h 17.2 km/h 49.3% 0.0 mm
00:09 26.1 °C 14.6 °C 1014.1 hPa NO 6.3 km/h 17.7 km/h 49.2% 0.0 mm
00:14 26.1 °C 14.6 °C 1014.1 hPa NNE 8.4 km/h 16.1 km/h 49% 0.0 mm
00:19 26.1 °C 14.6 °C 1014.2 hPa NO 8 km/h 11.1 km/h 49% 0.0 mm
00:24 26.1 °C 14.6 °C 1014.2 hPa ONO 6.5 km/h 13.7 km/h 49.2% 0.0 mm
00:29 26 °C 14.8 °C 1014.2 hPa ONO 6.1 km/h 14.5 km/h 49.9% 0.0 mm
00:34 26 °C 14.7 °C 1014.2 hPa ONO 5 km/h 10 km/h 50% 0.0 mm
00:39 25.9 °C 14.6 °C 1014.2 hPa NO 5.3 km/h 13.7 km/h 49.9% 0.0 mm
00:44 25.8 °C 14.6 °C 1014.2 hPa ONO 6.4 km/h 14.5 km/h 50% 0.0 mm
00:49 25.8 °C 14.8 °C 1014.4 hPa ONO 6.3 km/h 11.3 km/h 50.7% 0.0 mm
00:54 25.7 °C 14.7 °C 1014.4 hPa Oeste 5.8 km/h 17.2 km/h 50.8% 0.0 mm
00:59 25.6 °C 14.7 °C 1014.4 hPa Oeste 5.8 km/h 17.7 km/h 51% 0.0 mm
01:04 25.6 °C 14.7 °C 1014.5 hPa Oeste 5.8 km/h 13.7 km/h 51% 0.0 mm
01:09 25.5 °C 14.6 °C 1014.5 hPa OSO 5.6 km/h 14.5 km/h 51% 0.0 mm
01:14 25.5 °C 14.6 °C 1014.5 hPa Oeste 5 km/h 14.5 km/h 51% 0.0 mm
01:19 25.4 °C 14.5 °C 1014.6 hPa OSO 5.1 km/h 12.9 km/h 51% 0.0 mm
01:24 25.4 °C 14.5 °C 1014.6 hPa SSO 5.8 km/h 9.7 km/h 51.1% 0.0 mm
01:29 25.4 °C 14.8 °C 1014.6 hPa SSO 5.3 km/h 11.1 km/h 51.8% 0.0 mm
01:34 25.3 °C 14.7 °C 1014.7 hPa ONO 3.2 km/h 11.9 km/h 51.7% 0.0 mm
01:39 25.3 °C 14.7 °C 1014.7 hPa Oeste 3.6 km/h 11.3 km/h 51.9% 0.0 mm
01:44 25.3 °C 14.7 °C 1014.7 hPa OSO 5 km/h 20.4 km/h 51.9% 0.0 mm
01:49 25.2 °C 14.7 °C 1014.7 hPa Oeste 5.7 km/h 20.9 km/h 52% 0.0 mm
01:54 25.1 °C 14.9 °C 1014.7 hPa Oeste 8.7 km/h 17.7 km/h 53% 0.0 mm
01:59 25 °C 14.7 °C 1014.7 hPa Oeste 8.4 km/h 20.4 km/h 53% 0.0 mm
02:04 24.9 °C 14.7 °C 1014.7 hPa Oeste 7.6 km/h 20.9 km/h 53.1% 0.0 mm
02:09 24.8 °C 14.8 °C 1014.7 hPa OSO 7.7 km/h 16.1 km/h 53.9% 0.0 mm
02:14 24.7 °C 14.7 °C 1014.7 hPa Oeste 8.4 km/h 15.6 km/h 53.6% 0.0 mm
02:19 24.7 °C 14.5 °C 1014.8 hPa Oeste 8.4 km/h 16.7 km/h 53% 0.0 mm
02:24 24.6 °C 14.4 °C 1014.8 hPa OSO 8.7 km/h 16.1 km/h 53% 0.0 mm
02:29 24.6 °C 14.3 °C 1014.8 hPa OSO 8.2 km/h 14.5 km/h 52.8% 0.0 mm
02:34 24.6 °C 14.3 °C 1014.9 hPa OSO 6.5 km/h 11.9 km/h 52.6% 0.0 mm
02:39 24.5 °C 14 °C 1014.9 hPa OSO 6.5 km/h 14 km/h 51.8% 0.0 mm
02:44 24.5 °C 13.7 °C 1014.9 hPa OSO 6.5 km/h 16.1 km/h 50.9% 0.0 mm
02:49 24.4 °C 13.6 °C 1014.9 hPa OSO 6.5 km/h 16.1 km/h 50.9% 0.0 mm
02:54 24.4 °C 13.5 °C 1014.9 hPa OSO 6.5 km/h 11.9 km/h 50.6% 0.0 mm
02:59 24.3 °C 13.3 °C 1014.9 hPa OSO 6.5 km/h 11.3 km/h 50% 0.0 mm
03:04 24.3 °C 13.2 °C 1015.0 hPa OSO 6.5 km/h 11.3 km/h 50% 0.0 mm
03:09 24.3 °C 13.1 °C 1015.0 hPa OSO 6.3 km/h 19.8 km/h 49.8% 0.0 mm
03:14 24.2 °C 12.9 °C 1015.0 hPa Oeste 5.8 km/h 20.9 km/h 49.2% 0.0 mm
03:19 24.2 °C 12.8 °C 1015.0 hPa SO 6.4 km/h 16.7 km/h 49% 0.0 mm
03:24 24.1 °C 12.8 °C 1015.0 hPa Oeste 8.7 km/h 13 km/h 49.3% 0.0 mm
03:29 24.1 °C 12.9 °C 1015.0 hPa Oeste 7.9 km/h 12.9 km/h 49.6% 0.0 mm
03:34 24 °C 12.7 °C 1015.1 hPa SO 4.7 km/h 9.7 km/h 49.1% 0.0 mm
03:39 23.9 °C 12.8 °C 1015.1 hPa Oeste 4.5 km/h 8 km/h 49.9% 0.0 mm
03:44 23.9 °C 12.6 °C 1015.1 hPa Oeste 3.9 km/h 6.4 km/h 49.2% 0.0 mm
03:49 23.8 °C 12.5 °C 1015.2 hPa Oeste 3.7 km/h 7.6 km/h 49% 0.0 mm
03:54 23.8 °C 12.4 °C 1015.2 hPa Oeste 3.2 km/h 8.4 km/h 49% 0.0 mm
03:59 23.7 °C 12.4 °C 1015.2 hPa OSO 3.1 km/h 8 km/h 49.2% 0.0 mm
04:04 23.7 °C 12.2 °C 1015.2 hPa OSO 2.9 km/h 7.4 km/h 48.7% 0.0 mm
04:09 23.6 °C 12.3 °C 1015.2 hPa Oeste 3 km/h 8 km/h 49% 0.0 mm
04:14 23.6 °C 12.1 °C 1015.2 hPa OSO 3.2 km/h 9.3 km/h 48.5% 0.0 mm
04:19 23.6 °C 12.2 °C 1015.2 hPa SO 3.6 km/h 9.7 km/h 48.8% 0.0 mm
04:24 23.6 °C 12.2 °C 1015.2 hPa SO 5 km/h 11.1 km/h 49% 0.0 mm
04:29 23.5 °C 12.1 °C 1015.2 hPa SO 5.3 km/h 14.8 km/h 49% 0.0 mm
04:34 23.4 °C 12.1 °C 1015.2 hPa SO 6.4 km/h 14.8 km/h 49% 0.0 mm
04:39 23.3 °C 12.1 °C 1015.2 hPa OSO 6.7 km/h 14.5 km/h 49.1% 0.0 mm
04:44 23.3 °C 12.1 °C 1015.2 hPa SO 7.6 km/h 11.3 km/h 49.4% 0.0 mm
04:49 23.2 °C 12.1 °C 1015.3 hPa SO 7.3 km/h 11.3 km/h 49.6% 0.0 mm
04:54 23.1 °C 12.1 °C 1015.3 hPa SO 6.5 km/h 11.3 km/h 50% 0.0 mm
04:59 23.1 °C 12.1 °C 1015.3 hPa SO 6.7 km/h 14.8 km/h 50% 0.0 mm
05:04 22.9 °C 12 °C 1015.3 hPa SO 7.6 km/h 14.5 km/h 50% 0.0 mm
05:09 22.9 °C 11.9 °C 1015.3 hPa SO 7.9 km/h 14 km/h 50% 0.0 mm
05:14 22.9 °C 11.9 °C 1015.3 hPa SO 9.5 km/h 17.2 km/h 50% 0.0 mm
05:19 22.9 °C 12 °C 1015.4 hPa SO 9.6 km/h 17.7 km/h 50.4% 0.0 mm
05:24 22.8 °C 12.1 °C 1015.4 hPa SO 10 km/h 17.2 km/h 51% 0.0 mm
05:29 22.8 °C 12.1 °C 1015.4 hPa SO 10 km/h 18.5 km/h 51% 0.0 mm
05:34 22.7 °C 12.1 °C 1015.5 hPa SO 10.3 km/h 19.3 km/h 51% 0.0 mm
05:39 22.7 °C 12.1 °C 1015.5 hPa SO 10.2 km/h 19.3 km/h 51% 0.0 mm
05:44 22.6 °C 12 °C 1015.5 hPa SO 9.5 km/h 18.3 km/h 51% 0.0 mm
05:49 22.6 °C 11.9 °C 1015.5 hPa SO 9.7 km/h 17.7 km/h 51% 0.0 mm
05:54 22.6 °C 11.9 °C 1015.4 hPa SO 10.3 km/h 16.1 km/h 51% 0.0 mm
05:59 22.6 °C 11.9 °C 1015.4 hPa SO 10.2 km/h 18 km/h 51% 0.0 mm
06:04 22.5 °C 11.9 °C 1015.7 hPa SO 10 km/h 19.3 km/h 51% 0.0 mm
06:09 22.5 °C 11.8 °C 1015.7 hPa OSO 10 km/h 18.5 km/h 51% 0.0 mm
06:14 22.4 °C 11.9 °C 1015.7 hPa SO 10.3 km/h 19.3 km/h 51.5% 0.0 mm
06:19 22.4 °C 12 °C 1015.9 hPa SO 10.3 km/h 19.3 km/h 52% 0.0 mm
06:24 22.3 °C 12.2 °C 1015.9 hPa SO 10 km/h 17.2 km/h 52.9% 0.0 mm
06:29 22.2 °C 12.3 °C 1015.9 hPa SO 9.9 km/h 17.7 km/h 53.3% 0.0 mm
06:34 22.2 °C 12.5 °C 1016.2 hPa SO 9.5 km/h 16.7 km/h 54.5% 0.0 mm
06:39 22.1 °C 12.8 °C 1016.2 hPa SO 9.5 km/h 16.7 km/h 55.8% 0.0 mm
06:44 21.9 °C 13 °C 1016.2 hPa SO 9.5 km/h 19 km/h 57.1% 0.0 mm
06:49 21.7 °C 13.1 °C 1016.4 hPa SSO 9.5 km/h 19.3 km/h 58.1% 0.0 mm
06:54 21.6 °C 13.2 °C 1016.4 hPa SSO 9.5 km/h 18.5 km/h 59% 0.0 mm
06:59 21.4 °C 13.3 °C 1016.4 hPa SSO 9.6 km/h 19.3 km/h 59.8% 0.0 mm
07:04 21.3 °C 13.3 °C 1016.5 hPa SSO 10 km/h 16.1 km/h 60% 0.0 mm
07:09 21.3 °C 13.2 °C 1016.5 hPa SSO 10 km/h 18.5 km/h 60% 0.0 mm
07:14 21.3 °C 13.1 °C 1016.5 hPa SSO 10 km/h 19.3 km/h 59.4% 0.0 mm
07:19 21.3 °C 12.9 °C 1016.7 hPa SSO 10 km/h 19.3 km/h 59% 0.0 mm
07:24 21.3 °C 12.9 °C 1016.7 hPa SSO 10.3 km/h 20.4 km/h 59% 0.0 mm
07:29 21.3 °C 12.9 °C 1016.7 hPa SSO 10.7 km/h 21.7 km/h 59% 0.0 mm
07:34 21.2 °C 12.8 °C 1016.8 hPa SSO 12.2 km/h 24.1 km/h 58.6% 0.0 mm
07:39 21.3 °C 12.7 °C 1016.8 hPa SSO 12.5 km/h 24.1 km/h 58% 0.0 mm
07:44 21.3 °C 12.7 °C 1016.8 hPa SO 13.7 km/h 22.2 km/h 58% 0.0 mm
07:49 21.2 °C 12.8 °C 1017.1 hPa SO 13.6 km/h 22.5 km/h 58.8% 0.0 mm
07:54 21.1 °C 12.8 °C 1017.1 hPa SO 13 km/h 20.9 km/h 59% 0.0 mm
07:59 21 °C 12.7 °C 1017.1 hPa SSO 13 km/h 22.2 km/h 59% 0.0 mm
08:04 20.9 °C 12.6 °C 1017.4 hPa SSO 13 km/h 22.5 km/h 59.1% 0.0 mm
08:09 20.9 °C 12.8 °C 1017.4 hPa SSO 12.6 km/h 20.9 km/h 59.9% 0.0 mm
08:14 20.9 °C 12.8 °C 1017.4 hPa SSO 11.1 km/h 16.7 km/h 59.9% 0.0 mm
08:19 20.9 °C 12.8 °C 1017.6 hPa SSO 10.9 km/h 16.7 km/h 59.7% 0.0 mm
08:24 20.9 °C 12.6 °C 1017.6 hPa SSO 10 km/h 18.5 km/h 59% 0.0 mm
08:29 20.9 °C 12.6 °C 1017.6 hPa SO 10 km/h 19.3 km/h 59% 0.0 mm
08:34 21 °C 12.7 °C 1017.8 hPa SSO 10 km/h 19.3 km/h 59% 0.0 mm
08:39 21 °C 12.7 °C 1017.8 hPa SO 10.2 km/h 19.3 km/h 59% 0.0 mm
08:44 21 °C 12.7 °C 1017.8 hPa SO 11.1 km/h 17.7 km/h 59% 0.0 mm
08:49 21 °C 12.7 °C 1017.9 hPa SO 10.9 km/h 16.7 km/h 59% 0.0 mm
08:54 21 °C 12.7 °C 1017.9 hPa SO 10 km/h 18.5 km/h 59% 0.0 mm
08:59 21.1 °C 12.5 °C 1017.9 hPa SSO 10.2 km/h 20.4 km/h 58.1% 0.0 mm
09:04 21.2 °C 12.6 °C 1018.0 hPa SO 11.1 km/h 20.9 km/h 58.1% 0.0 mm
09:09 21.2 °C 12.6 °C 1018.0 hPa SSO 10.9 km/h 19.3 km/h 58% 0.0 mm
09:14 21.2 °C 12.6 °C 1018.0 hPa SSO 10.3 km/h 15.6 km/h 58% 0.0 mm
09:19 21.2 °C 12.7 °C 1018.1 hPa SO 10.2 km/h 18.5 km/h 58.1% 0.0 mm
09:24 21.3 °C 12.7 °C 1018.1 hPa SSO 10 km/h 19.3 km/h 58% 0.0 mm
09:29 21.3 °C 12.7 °C 1018.1 hPa SSO 9.9 km/h 19.3 km/h 58% 0.0 mm
09:34 21.4 °C 12.7 °C 1018.2 hPa SSO 9.5 km/h 19.3 km/h 57.4% 0.0 mm
09:39 21.6 °C 12.7 °C 1018.2 hPa SSO 9.6 km/h 16.7 km/h 57% 0.0 mm
09:44 21.7 °C 12.8 °C 1018.2 hPa SO 10 km/h 16.1 km/h 57% 0.0 mm
09:49 21.8 °C 12.8 °C 1018.2 hPa SSO 10 km/h 17.2 km/h 56.5% 0.0 mm
09:54 21.9 °C 12.8 °C 1018.2 hPa SO 10 km/h 17.7 km/h 56.4% 0.0 mm
09:59 22.1 °C 12.9 °C 1018.2 hPa SO 9.7 km/h 17.7 km/h 56% 0.0 mm
10:04 22.3 °C 12.9 °C 1018.3 hPa SO 8.7 km/h 14.8 km/h 55.4% 0.0 mm
10:09 22.4 °C 12.8 °C 1018.3 hPa SO 8.9 km/h 20.1 km/h 54.5% 0.0 mm
10:14 22.6 °C 12.8 °C 1018.3 hPa SO 9.5 km/h 20.9 km/h 54% 0.0 mm
10:19 22.7 °C 12.9 °C 1018.6 hPa SO 9.3 km/h 19 km/h 54% 0.0 mm
10:24 22.7 °C 12.9 °C 1018.6 hPa SO 8.7 km/h 19.3 km/h 54% 0.0 mm
10:29 22.8 °C 12.9 °C 1018.6 hPa SO 8.7 km/h 17.2 km/h 53.9% 0.0 mm
10:34 22.9 °C 12.9 °C 1018.6 hPa OSO 8.7 km/h 17.7 km/h 53.3% 0.0 mm
10:39 23 °C 12.9 °C 1018.6 hPa OSO 8.9 km/h 17.7 km/h 53% 0.0 mm
10:44 23.2 °C 12.8 °C 1018.6 hPa OSO 9.5 km/h 16.1 km/h 52% 0.0 mm
10:49 23.3 °C 13 °C 1018.8 hPa SO 9 km/h 14.5 km/h 52.6% 0.0 mm
10:54 23.3 °C 12.8 °C 1018.8 hPa OSO 6.9 km/h 20.4 km/h 51.7% 0.0 mm
10:59 23.3 °C 12.6 °C 1018.8 hPa OSO 7.6 km/h 20.9 km/h 51.1% 0.0 mm
11:04 23.3 °C 12.6 °C 1019.0 hPa OSO 10 km/h 17.7 km/h 51% 0.0 mm
11:09 23.5 °C 12.7 °C 1019.0 hPa OSO 9.9 km/h 16.7 km/h 51% 0.0 mm
11:14 23.6 °C 12.7 °C 1019.0 hPa OSO 9.5 km/h 16.7 km/h 50.4% 0.0 mm
11:19 23.7 °C 12.7 °C 1019.0 hPa OSO 9.3 km/h 16.7 km/h 50% 0.0 mm
11:24 23.8 °C 12.8 °C 1018.8 hPa OSO 8.4 km/h 16.1 km/h 50% 0.0 mm
11:29 24.1 °C 12.9 °C 1018.8 hPa SO 8 km/h 14.8 km/h 49.9% 0.0 mm
11:34 24.2 °C 12.8 °C 1018.8 hPa Oeste 6.5 km/h 16.7 km/h 49% 0.0 mm
11:39 24.2 °C 12.7 °C 1018.6 hPa SO 6.7 km/h 16.1 km/h 48.6% 0.0 mm
11:44 24.3 °C 12.9 °C 1018.6 hPa SO 7.6 km/h 20.4 km/h 48.8% 0.0 mm
11:49 24.5 °C 12.8 °C 1018.6 hPa Oeste 7.7 km/h 20.9 km/h 48% 0.0 mm
11:54 24.7 °C 12.7 °C 1018.4 hPa OSO 8.4 km/h 18.5 km/h 47.3% 0.0 mm
11:59 24.9 °C 12.6 °C 1018.4 hPa Oeste 8.4 km/h 19.3 km/h 46.3% 0.0 mm
12:04 25.1 °C 12.4 °C 1018.4 hPa Oeste 8.7 km/h 17.7 km/h 45.2% 0.0 mm
12:09 25.1 °C 12.3 °C 1018.2 hPa Oeste 8.7 km/h 16.7 km/h 44.9% 0.0 mm
12:14 25.1 °C 12.3 °C 1018.2 hPa Oeste 8.7 km/h 18.5 km/h 44.8% 0.0 mm
12:19 25.2 °C 12.3 °C 1018.2 hPa Oeste 9 km/h 19.3 km/h 44.7% 0.0 mm
12:24 25.2 °C 12.6 °C 1018.1 hPa OSO 10.3 km/h 19.3 km/h 45.4% 0.0 mm
12:29 25.4 °C 12.3 °C 1018.1 hPa Oeste 10.3 km/h 19.3 km/h 44.2% 0.0 mm
12:34 25.5 °C 12.2 °C 1018.1 hPa ONO 10.3 km/h 19.3 km/h 43.8% 0.0 mm
12:39 25.6 °C 12.4 °C 1018.0 hPa Oeste 10.1 km/h 16.1 km/h 43.9% 0.0 mm
12:44 25.8 °C 12.4 °C 1018.0 hPa OSO 9.5 km/h 20.4 km/h 43.3% 0.0 mm
12:49 26 °C 12.3 °C 1018.0 hPa OSO 9.6 km/h 20.9 km/h 42.7% 0.0 mm
12:54 25.9 °C 12.2 °C 1017.9 hPa OSO 10 km/h 20.9 km/h 42.4% 0.0 mm
12:59 26.1 °C 12.5 °C 1017.9 hPa OSO 10.1 km/h 19.3 km/h 42.9% 0.0 mm
13:04 26.4 °C 12.4 °C 1017.9 hPa OSO 10.3 km/h 22.2 km/h 41.8% 0.0 mm
13:09 26.6 °C 12.3 °C 1017.8 hPa ONO 10.1 km/h 22.5 km/h 41% 0.0 mm
13:14 26.7 °C 12.3 °C 1017.8 hPa Oeste 9.5 km/h 17.7 km/h 40.8% 0.0 mm
13:19 26.8 °C 12.4 °C 1017.8 hPa Oeste 8.9 km/h 14.8 km/h 40.8% 0.0 mm
13:24 26.9 °C 12.3 °C 1017.8 hPa SO 6.5 km/h 18.3 km/h 40.3% 0.0 mm
13:29 27.1 °C 12.3 °C 1017.8 hPa Oeste 6.9 km/h 19.3 km/h 40% 0.0 mm
13:34 27.1 °C 12.3 °C 1017.8 hPa Oeste 8.4 km/h 19.3 km/h 39.8% 0.0 mm
13:39 27.1 °C 12.2 °C 1017.6 hPa OSO 8.7 km/h 16.7 km/h 39.5% 0.0 mm
13:44 27.1 °C 12.1 °C 1017.6 hPa OSO 10 km/h 16.1 km/h 39.3% 0.0 mm
13:49 27.1 °C 12 °C 1017.6 hPa Sur 9.7 km/h 18.5 km/h 39.2% 0.0 mm
13:54 27.2 °C 12.3 °C 1017.3 hPa OSO 8.7 km/h 19.3 km/h 39.6% 0.0 mm
13:59 27.4 °C 12.2 °C 1017.3 hPa Oeste 8.6 km/h 19.3 km/h 39% 0.0 mm
14:04 27.6 °C 12.3 °C 1017.3 hPa SO 8.4 km/h 14.5 km/h 38.9% 0.0 mm
14:09 27.6 °C 12.3 °C 1017.3 hPa Oeste 8.2 km/h 13.7 km/h 38.9% 0.0 mm
14:14 27.6 °C 12.4 °C 1017.3 hPa NO 7.6 km/h 16.7 km/h 38.9% 0.0 mm
14:19 27.6 °C 12.4 °C 1017.3 hPa NO 7.4 km/h 16.1 km/h 39% 0.0 mm
14:24 27.6 °C 12.6 °C 1017.1 hPa SSO 6.9 km/h 16.7 km/h 39.5% 0.0 mm
14:29 27.6 °C 12.8 °C 1017.1 hPa Sur 7.3 km/h 16.1 km/h 40% 0.0 mm
14:34 27.7 °C 12.7 °C 1017.1 hPa SO 8.4 km/h 16.7 km/h 39.4% 0.0 mm
14:39 27.8 °C 12.5 °C 1016.9 hPa OSO 8.1 km/h 16.1 km/h 38.9% 0.0 mm
14:44 27.8 °C 12.6 °C 1016.9 hPa NO 6.9 km/h 11.3 km/h 39% 0.0 mm
14:49 27.8 °C 12.6 °C 1016.9 hPa ONO 6.9 km/h 13 km/h 39% 0.0 mm
14:54 27.8 °C 12.3 °C 1016.8 hPa SO 6.9 km/h 14.8 km/h 38.4% 0.0 mm
14:59 27.8 °C 12.2 °C 1016.8 hPa NO 6.8 km/h 14.5 km/h 38.1% 0.0 mm
15:04 27.9 °C 12.7 °C 1016.8 hPa NNO 6.5 km/h 14 km/h 38.9% 0.0 mm
15:09 28.2 °C 12.8 °C 1016.6 hPa SO 6.3 km/h 14.8 km/h 38.7% 0.0 mm
15:14 28.2 °C 12.9 °C 1016.6 hPa SSO 5.8 km/h 14.5 km/h 39% 0.0 mm
15:19 28.3 °C 12.7 °C 1016.6 hPa Oeste 5.4 km/h 8 km/h 38.3% 0.0 mm
15:24 28.3 °C 12.8 °C 1016.4 hPa North 3.9 km/h 9.5 km/h 38.3% 0.0 mm
15:29 28.4 °C 12.9 °C 1016.4 hPa NNO 3.9 km/h 9.7 km/h 38.3% 0.0 mm
15:34 28.7 °C 13.2 °C 1016.4 hPa NNO 3.9 km/h 13.7 km/h 38.5% 0.0 mm
15:39 28.7 °C 13.1 °C 1016.4 hPa ESE 4.4 km/h 14.8 km/h 38.1% 0.0 mm
15:44 28.4 °C 12.8 °C 1016.4 hPa Sur 6.4 km/h 14.8 km/h 38.3% 0.0 mm
15:49 28.3 °C 13 °C 1016.4 hPa SO 6.8 km/h 12.9 km/h 38.9% 0.0 mm
15:54 28.4 °C 13.1 °C 1016.4 hPa OSO 8.4 km/h 13 km/h 39% 0.0 mm
15:59 28.6 °C 13.3 °C 1016.4 hPa ONO 7.5 km/h 12.9 km/h 39% 0.0 mm
16:04 28.9 °C 13.1 °C 1016.4 hPa NO 5 km/h 8 km/h 38% 0.0 mm
16:09 29 °C 13.2 °C 1016.2 hPa OSO 5 km/h 11.1 km/h 38% 0.0 mm
16:14 29.1 °C 13.3 °C 1016.2 hPa SO 5 km/h 11.3 km/h 38% 0.0 mm
16:19 29 °C 13.4 °C 1016.2 hPa Oeste 5.3 km/h 11.3 km/h 38.4% 0.0 mm
16:24 29.2 °C 13.5 °C 1016.1 hPa SO 6.9 km/h 11.9 km/h 38.2% 0.0 mm
16:29 29.1 °C 13.4 °C 1016.1 hPa Oeste 6.9 km/h 13.7 km/h 38% 0.0 mm
16:34 29 °C 13.6 °C 1016.1 hPa SSO 6.9 km/h 14.5 km/h 38.8% 0.0 mm
16:39 29.1 °C 13.4 °C 1016.1 hPa ESE 6.5 km/h 11.1 km/h 38.3% 0.0 mm
16:44 28.9 °C 13.6 °C 1016.1 hPa ESE 5 km/h 11.3 km/h 39% 0.0 mm
16:49 29 °C 13.6 °C 1016.1 hPa ESE 4.9 km/h 8 km/h 39% 0.0 mm
16:54 29 °C 13.6 °C 1016.1 hPa NNE 4.7 km/h 7.6 km/h 39% 0.0 mm
16:59 29.1 °C 13.7 °C 1016.1 hPa North 4.5 km/h 8 km/h 39% 0.0 mm
17:04 29.1 °C 13.7 °C 1016.1 hPa ESE 3.9 km/h 8.4 km/h 39% 0.0 mm
17:09 29.1 °C 13.7 °C 1016.1 hPa ENE 3.9 km/h 8.7 km/h 39% 0.0 mm
17:14 29.1 °C 13.7 °C 1016.1 hPa SE 3.9 km/h 10 km/h 39% 0.0 mm
17:19 29.1 °C 14 °C 1016.2 hPa Este 4.2 km/h 15.6 km/h 39.7% 0.0 mm
17:24 29 °C 13.8 °C 1016.2 hPa ESE 5.8 km/h 16.1 km/h 39.5% 0.0 mm
17:29 28.8 °C 13.8 °C 1016.2 hPa Este 6.3 km/h 14.5 km/h 39.7% 0.0 mm
17:34 28.8 °C 13.9 °C 1016.2 hPa NE 8.4 km/h 11.3 km/h 40% 0.0 mm
17:39 28.9 °C 13.9 °C 1016.0 hPa NE 7.5 km/h 9.3 km/h 40% 0.0 mm
17:44 28.9 °C 14 °C 1016.0 hPa ESE 3.9 km/h 18 km/h 40.1% 0.0 mm
17:49 28.7 °C 14.3 °C 1016.0 hPa ESE 5.2 km/h 22.2 km/h 41.4% 0.0 mm
17:54 28.4 °C 14.2 °C 1016.0 hPa SE 10.3 km/h 22.5 km/h 42.1% 0.0 mm
17:59 28.2 °C 14.4 °C 1016.0 hPa ESE 10.7 km/h 22.5 km/h 42.8% 0.0 mm
18:04 28.2 °C 14.5 °C 1016.1 hPa ESE 11.9 km/h 22.5 km/h 43.3% 0.0 mm
18:09 28 °C 14.8 °C 1016.1 hPa ESE 11.9 km/h 19.3 km/h 44.7% 0.0 mm
18:14 27.8 °C 15.2 °C 1016.1 hPa SE 11.9 km/h 22.5 km/h 46% 0.0 mm
18:19 27.7 °C 15.5 °C 1016.1 hPa SE 11.9 km/h 22.5 km/h 47.4% 0.0 mm
18:24 27.7 °C 15.7 °C 1016.1 hPa SE 11.9 km/h 19.3 km/h 47.9% 0.0 mm
18:29 27.7 °C 15.5 °C 1016.1 hPa SE 11.3 km/h 16.7 km/h 47.3% 0.0 mm
18:34 27.7 °C 15.2 °C 1016.1 hPa SE 8.7 km/h 17.2 km/h 46.7% 0.0 mm
18:39 27.5 °C 14.9 °C 1016.1 hPa SE 9 km/h 21.7 km/h 46% 0.0 mm
18:44 27.4 °C 14.7 °C 1016.1 hPa SE 10.3 km/h 22.5 km/h 45.7% 0.0 mm
18:49 27.3 °C 14.6 °C 1016.2 hPa SE 10.5 km/h 19.3 km/h 45.7% 0.0 mm
18:54 27.3 °C 14.5 °C 1016.2 hPa SE 11.1 km/h 19.3 km/h 45.7% 0.0 mm
18:59 27.2 °C 14.5 °C 1016.2 hPa SE 10.9 km/h 19 km/h 46% 0.0 mm
19:04 27.1 °C 14.7 °C 1016.4 hPa SE 10.3 km/h 21.7 km/h 46.7% 0.0 mm
19:09 26.9 °C 14.6 °C 1016.4 hPa SE 10.7 km/h 22.5 km/h 47.1% 0.0 mm
19:14 26.8 °C 14.9 °C 1016.4 hPa SE 11.9 km/h 22.5 km/h 48% 0.0 mm
19:19 26.7 °C 15 °C 1016.5 hPa SE 11.9 km/h 20.9 km/h 48.9% 0.0 mm
19:24 26.6 °C 15.3 °C 1016.5 hPa SE 11.9 km/h 20.9 km/h 50% 0.0 mm
19:29 26.4 °C 15.1 °C 1016.5 hPa SE 11.5 km/h 22.2 km/h 50% 0.0 mm
19:34 26.3 °C 15.3 °C 1016.5 hPa SE 10.3 km/h 22.5 km/h 50.8% 0.0 mm
19:39 26.2 °C 15.4 °C 1016.5 hPa SSE 10.2 km/h 19.3 km/h 51.4% 0.0 mm
19:44 26.2 °C 15.5 °C 1016.5 hPa SSE 9.5 km/h 19 km/h 52% 0.0 mm
19:49 26.1 °C 15.6 °C 1016.6 hPa SE 9.1 km/h 19.3 km/h 52.5% 0.0 mm
19:54 26.1 °C 15.7 °C 1016.6 hPa SE 7.6 km/h 11.3 km/h 52.7% 0.0 mm
19:59 26 °C 15.7 °C 1016.6 hPa NE 6.9 km/h 9.7 km/h 53% 0.0 mm
20:04 25.9 °C 15.6 °C 1016.7 hPa ENE 4.7 km/h 8 km/h 53% 0.0 mm
20:09 25.8 °C 15.8 °C 1016.7 hPa ENE 4.4 km/h 8 km/h 54% 0.0 mm
20:14 25.7 °C 15.7 °C 1016.7 hPa ENE 3.2 km/h 8 km/h 54% 0.0 mm
20:19 25.6 °C 15.9 °C 1016.8 hPa ENE 3 km/h 5.8 km/h 54.9% 0.0 mm
20:24 25.5 °C 15.9 °C 1016.8 hPa ENE 2.2 km/h 8.7 km/h 55.4% 0.0 mm
20:29 25.3 °C 16.1 °C 1016.8 hPa NE 2.9 km/h 10 km/h 56.5% 0.0 mm
20:34 25.2 °C 16.2 °C 1017.0 hPa NE 5 km/h 11.9 km/h 57.5% 0.0 mm
20:39 25 °C 16.1 °C 1017.0 hPa NE 5.3 km/h 11.3 km/h 58% 0.0 mm
20:44 24.9 °C 16.1 °C 1017.0 hPa NE 6.4 km/h 9.7 km/h 58.1% 0.0 mm
20:49 24.8 °C 16.2 °C 1017.3 hPa NE 6.3 km/h 9.7 km/h 58.8% 0.0 mm
20:54 24.8 °C 16.2 °C 1017.3 hPa NE 5.8 km/h 11.1 km/h 59.1% 0.0 mm
20:59 24.7 °C 16.4 °C 1017.3 hPa NE 5.8 km/h 11.3 km/h 60% 0.0 mm
21:04 24.6 °C 16.3 °C 1017.4 hPa NE 5.8 km/h 9.7 km/h 60% 0.0 mm
21:09 24.6 °C 16.4 °C 1017.4 hPa NE 5.5 km/h 9.5 km/h 60.3% 0.0 mm
21:14 24.4 °C 16.4 °C 1017.4 hPa NE 4.7 km/h 14.8 km/h 61.1% 0.0 mm
21:19 24.2 °C 16.5 °C 1017.7 hPa NE 5.3 km/h 14.5 km/h 62% 0.0 mm
21:24 24.2 °C 16.4 °C 1017.7 hPa ENE 7.6 km/h 11.3 km/h 62% 0.0 mm
21:29 24.1 °C 16.6 °C 1017.7 hPa NE 7 km/h 9.3 km/h 62.9% 0.0 mm
21:34 24.1 °C 16.8 °C 1017.8 hPa NE 5 km/h 9.7 km/h 63.6% 0.0 mm
21:39 24.1 °C 17.1 °C 1017.8 hPa North 4.8 km/h 8 km/h 64.9% 0.0 mm
21:44 24.1 °C 17.3 °C 1017.8 hPa NNO 3.9 km/h 8 km/h 66% 0.0 mm
21:49 24 °C 17.6 °C 1017.9 hPa NNO 3.7 km/h 7.6 km/h 67.4% 0.0 mm
21:54 23.8 °C 17.8 °C 1017.9 hPa NO 3.2 km/h 8 km/h 68.8% 0.0 mm
21:59 23.7 °C 18 °C 1017.9 hPa NNO 3.6 km/h 10 km/h 70.6% 0.0 mm
22:04 23.4 °C 18 °C 1018.1 hPa NNO 4.7 km/h 9.7 km/h 71.9% 0.0 mm
22:09 23.3 °C 18.1 °C 1018.1 hPa NO 4.7 km/h 8.4 km/h 72.8% 0.0 mm
22:14 23.2 °C 18.1 °C 1018.1 hPa NNO 4.7 km/h 8.4 km/h 73% 0.0 mm
22:19 23.1 °C 18.1 °C 1018.2 hPa NNO 4.7 km/h 8.4 km/h 73.7% 0.0 mm
22:24 22.9 °C 18 °C 1018.2 hPa North 5 km/h 8 km/h 74% 0.0 mm
22:29 22.8 °C 18 °C 1018.2 hPa NE 4.9 km/h 8 km/h 74% 0.0 mm
22:34 22.8 °C 18.1 °C 1018.2 hPa NE 4.7 km/h 8 km/h 74.9% 0.0 mm
22:39 22.8 °C 18.1 °C 1018.1 hPa North 4.3 km/h 6.4 km/h 75% 0.0 mm
22:44 22.7 °C 18.1 °C 1018.1 hPa NNE 2.9 km/h 7.6 km/h 75% 0.0 mm
22:49 22.7 °C 18 °C 1018.2 hPa NNO 3.1 km/h 8 km/h 75% 0.0 mm
22:54 22.6 °C 18 °C 1018.2 hPa North 3.9 km/h 8 km/h 75.4% 0.0 mm
22:59 22.6 °C 18.1 °C 1018.2 hPa NNE 4 km/h 8 km/h 76% 0.0 mm
23:04 22.5 °C 18 °C 1018.3 hPa NNE 4.7 km/h 8 km/h 76% 0.0 mm
23:09 22.4 °C 17.9 °C 1018.3 hPa NNE 4.4 km/h 8 km/h 76% 0.0 mm
23:14 22.4 °C 17.9 °C 1018.3 hPa North 3.2 km/h 7.4 km/h 76% 0.0 mm
23:19 22.4 °C 17.9 °C 1018.3 hPa North 3.2 km/h 8 km/h 76% 0.0 mm
23:24 22.4 °C 17.9 °C 1018.3 hPa NNO 2.9 km/h 4.8 km/h 76% 0.0 mm
23:29 22.4 °C 17.9 °C 1018.3 hPa NNO 2.8 km/h 5.6 km/h 76% 0.0 mm
23:34 22.4 °C 17.9 °C 1018.3 hPa NO 2.2 km/h 7.4 km/h 76% 0.0 mm
23:39 22.3 °C 17.9 °C 1018.2 hPa NO 2.5 km/h 8 km/h 76% 0.0 mm
23:44 22.3 °C 18 °C 1018.2 hPa NO 3.2 km/h 6.4 km/h 76.8% 0.0 mm
23:49 22.3 °C 18 °C 1018.3 hPa NO 2.5 km/h 5 km/h 77% 0.0 mm
23:54 22.2 °C 18 °C 1018.3 hPa Calm   5.6 km/h 77% 0.0 mm
23:59 22.2 °C 18 °C 1018.3 hPa NO 0.5 km/h 4.8 km/h 77.1% 0.0 mm
Murcia-Puente Tocinos, España
Compliments of Weather Underground - 2.75 mb

La estación de MeteoMurcia.com, publica sus datos en los siguientes proyectos:

Weather Underground PWS IMURCIAP2 Meteoclimatic www.awekas.at

W3Counter
Web Analytics